createdAt,value
2023-05-15T00:02:18.693Z,100820.79
2023-05-15T00:04:51.170Z,100825.32
2023-05-15T00:07:29.643Z,100833.17
2023-05-15T00:10:00.067Z,100833.70
2023-05-15T00:12:36.726Z,100833.73
2023-05-15T00:15:07.806Z,100828.70
2023-05-15T00:17:37.176Z,100824.50
2023-05-15T00:20:10.141Z,100822.55
2023-05-15T00:22:39.838Z,100821.33
2023-05-15T00:25:15.971Z,100817.64
2023-05-15T00:27:44.303Z,100814.11
2023-05-15T00:30:14.505Z,100809.59
2023-05-15T00:32:43.672Z,100805.97
2023-05-15T00:35:12.116Z,100801.34
2023-05-15T00:37:41.342Z,100799.95
2023-05-15T00:40:12.732Z,100794.04
2023-05-15T00:42:42.503Z,100787.55
2023-05-15T00:45:13.509Z,100780.27
2023-05-15T00:47:42.948Z,100770.80
2023-05-15T00:50:13.021Z,100769.23
2023-05-15T00:53:06.775Z,100772.10
2023-05-15T00:55:36.380Z,100762.08
2023-05-15T00:58:11.979Z,100753.83
2023-05-15T01:00:41.331Z,100750.75
2023-05-15T01:03:11.404Z,100739.02
2023-05-15T01:05:45.536Z,100730.10
2023-05-15T01:08:17.442Z,100735.08
2023-05-15T01:10:49.166Z,100740.39
2023-05-15T01:13:20.625Z,100737.23
2023-05-15T01:16:01.746Z,100733.95
2023-05-15T01:18:36.193Z,100734.04
2023-05-15T01:21:30.721Z,100732.95
2023-05-15T01:24:09.506Z,100725.82
2023-05-15T01:27:02.500Z,100727.55
2023-05-15T01:32:55.717Z,100729.05
2023-05-15T01:35:36.439Z,100735.32
2023-05-15T01:38:16.031Z,100741.15
2023-05-15T01:40:49.597Z,100743.06
2023-05-15T01:43:27.650Z,100745.83
2023-05-15T01:46:33.846Z,100758.98
2023-05-15T01:49:03.624Z,100764.41
2023-05-15T01:52:03.996Z,100765.61
2023-05-15T01:54:43.462Z,100764.96
2023-05-15T01:57:18.055Z,100758.65
2023-05-15T01:59:52.464Z,100754.32
2023-05-15T02:02:23.143Z,100757.73
2023-05-15T02:04:54.977Z,100752.27
2023-05-15T02:07:30.376Z,100740.98
2023-05-15T02:10:05.294Z,100743.08
2023-05-15T02:12:38.430Z,100745.33
2023-05-15T02:15:11.159Z,100742.66
2023-05-15T02:17:41.182Z,100747.74
2023-05-15T02:20:14.020Z,100759.36
2023-05-15T02:22:46.568Z,100770.92
2023-05-15T02:25:31.618Z,100769.91
2023-05-15T02:28:06.797Z,100759.06
2023-05-15T02:30:44.556Z,100754.98
2023-05-15T02:33:17.774Z,100760.15
2023-05-15T02:36:00.267Z,100757.58
2023-05-15T02:38:43.937Z,100754.56
2023-05-15T02:41:25.095Z,100757.07
2023-05-15T02:44:01.610Z,100755.85
2023-05-15T02:46:33.737Z,100766.62
2023-05-15T02:49:07.376Z,100768.23
2023-05-15T02:51:42.054Z,100765.13
2023-05-15T02:54:21.618Z,100754.47
2023-05-15T02:56:51.556Z,100745.51
2023-05-15T02:59:22.751Z,100740.12
2023-05-15T03:01:52.122Z,100734.88
2023-05-15T03:04:28.025Z,100738.39
2023-05-15T03:06:59.561Z,100743.48
2023-05-15T03:09:33.259Z,100745.94
2023-05-15T03:12:13.689Z,100739.98
2023-05-15T03:14:46.950Z,100736.98
2023-05-15T03:17:17.122Z,100734.86
2023-05-15T03:19:52.646Z,100741.18
2023-05-15T03:22:29.353Z,100750.67
2023-05-15T03:25:01.939Z,100751.88
2023-05-15T03:27:31.845Z,100755.70
2023-05-15T03:30:01.350Z,100763.59
2023-05-15T03:32:30.702Z,100767.61
2023-05-15T03:35:11.538Z,100758.25
2023-05-15T03:37:42.408Z,100743.86
2023-05-15T03:40:13.484Z,100734.55
2023-05-15T03:42:41.605Z,100725.41
2023-05-15T03:45:16.613Z,100724.91
2023-05-15T03:47:54.890Z,100728.28
2023-05-15T03:50:28.240Z,100727.09
2023-05-15T03:52:56.845Z,100726.57
2023-05-15T03:55:29.746Z,100723.24
2023-05-15T03:57:58.494Z,100718.17
2023-05-15T04:00:27.602Z,100707.85
2023-05-15T04:02:56.336Z,100697.38
2023-05-15T04:05:27.139Z,100698.75
2023-05-15T04:08:00.488Z,100700.80
2023-05-15T04:10:29.581Z,100695.80
2023-05-15T04:13:01.060Z,100696.50
2023-05-15T04:15:31.517Z,100696.11
2023-05-15T04:18:03.177Z,100699.17
2023-05-15T04:20:43.297Z,100708.20
2023-05-15T04:23:13.640Z,100718.45
2023-05-15T04:25:46.165Z,100727.09
2023-05-15T04:28:14.838Z,100731.14
2023-05-15T04:30:43.727Z,100735.30
2023-05-15T04:33:12.664Z,100735.04
2023-05-15T04:35:41.996Z,100734.60
2023-05-15T04:38:15.480Z,100743.36
2023-05-15T04:40:45.317Z,100753.03
2023-05-15T04:43:14.123Z,100754.27
2023-05-15T04:45:43.539Z,100756.84
2023-05-15T04:48:13.096Z,100763.77
2023-05-15T04:50:42.604Z,100762.30
2023-05-15T04:53:12.299Z,100768.60
2023-05-15T04:55:44.310Z,100769.98
2023-05-15T04:58:13.325Z,100769.74
2023-05-15T05:00:42.501Z,100774.59
2023-05-15T05:03:12.364Z,100769.65
2023-05-15T05:05:41.361Z,100758.70
2023-05-15T05:08:20.039Z,100748.56
2023-05-15T05:10:48.236Z,100744.97
2023-05-15T05:13:19.073Z,100732.67
2023-05-15T05:15:47.270Z,100729.02
2023-05-15T05:18:15.882Z,100724.54
2023-05-15T05:20:44.809Z,100721.09
2023-05-15T05:23:14.755Z,100726.13
2023-05-15T05:25:44.792Z,100730.79
2023-05-15T05:28:14.033Z,100730.48
2023-05-15T05:30:47.016Z,100729.34
2023-05-15T05:33:16.752Z,100732.58
2023-05-15T05:35:47.120Z,100736.63
2023-05-15T05:38:35.286Z,100739.04
2023-05-15T05:41:04.367Z,100736.30
2023-05-15T05:43:33.671Z,100741.84
2023-05-15T05:46:03.028Z,100739.98
2023-05-15T05:48:32.071Z,100744.94
2023-05-15T05:51:00.351Z,100751.33
2023-05-15T05:53:29.562Z,100756.64
2023-05-15T05:55:58.839Z,100763.78
2023-05-15T05:58:28.196Z,100767.77
2023-05-15T06:00:57.825Z,100769.59
2023-05-15T06:03:26.507Z,100766.27
2023-05-15T06:05:57.856Z,100768.60
2023-05-15T06:08:26.367Z,100772.11
2023-05-15T06:10:55.107Z,100773.31
2023-05-15T06:13:23.524Z,100768.98
2023-05-15T06:15:51.931Z,100770.27
2023-05-15T06:18:27.081Z,100768.89
2023-05-15T06:20:55.791Z,100759.77
2023-05-15T06:23:24.603Z,100749.86
2023-05-15T06:25:53.311Z,100743.70
2023-05-15T06:28:24.101Z,100748.44
2023-05-15T06:30:55.457Z,100745.85
2023-05-15T06:33:23.976Z,100737.65
2023-05-15T06:35:52.581Z,100742.45
2023-05-15T06:38:23.096Z,100744.23
2023-05-15T06:40:53.168Z,100742.50
2023-05-15T06:43:24.154Z,100735.62
2023-05-15T06:45:52.639Z,100727.36
2023-05-15T06:48:30.061Z,100719.17
2023-05-15T06:51:02.763Z,100715.90
2023-05-15T06:53:32.395Z,100705.83
2023-05-15T06:56:01.543Z,100702.08
2023-05-15T06:58:31.250Z,100700.31
2023-05-15T07:01:03.139Z,100699.02
2023-05-15T07:03:33.908Z,100699.14
2023-05-15T07:06:09.038Z,100700.35
2023-05-15T07:08:44.478Z,100700.48
2023-05-15T07:11:16.640Z,100700.86
2023-05-15T07:13:47.727Z,100699.89
2023-05-15T07:16:19.130Z,100709.42
2023-05-15T07:18:49.431Z,100707.13
2023-05-15T07:21:21.019Z,100712.20
2023-05-15T07:23:49.213Z,100717.48
2023-05-15T07:26:31.068Z,100713.30
2023-05-15T07:29:03.508Z,100704.21
2023-05-15T07:31:32.992Z,100700.77
2023-05-15T07:34:00.920Z,100700.53
2023-05-15T07:36:29.961Z,100706.11
2023-05-15T07:38:58.775Z,100697.39
2023-05-15T07:41:27.551Z,100692.44
2023-05-15T07:43:55.685Z,100694.13
2023-05-15T07:46:24.140Z,100694.86
2023-05-15T07:48:52.111Z,100690.41
2023-05-15T07:51:20.135Z,100685.65
2023-05-15T07:53:48.764Z,100693.77
2023-05-15T07:56:17.580Z,100692.02
2023-05-15T07:58:46.829Z,100697.83
2023-05-15T08:01:14.980Z,100699.48
2023-05-15T08:03:44.018Z,100703.02
2023-05-15T08:06:13.081Z,100708.05
2023-05-15T08:08:43.687Z,100707.48
2023-05-15T08:11:12.173Z,100705.73
2023-05-15T08:13:40.577Z,100704.83
2023-05-15T08:16:09.495Z,100703.00
2023-05-15T08:18:37.736Z,100700.40
2023-05-15T08:21:06.469Z,100696.48
2023-05-15T08:23:35.346Z,100687.42
2023-05-15T08:26:03.631Z,100683.70
2023-05-15T08:28:32.309Z,100678.11
2023-05-15T08:31:00.527Z,100682.63
2023-05-15T08:33:28.706Z,100684.46
2023-05-15T08:35:57.878Z,100685.02
2023-05-15T08:38:31.990Z,100682.09
2023-05-15T08:41:03.474Z,100689.61
2023-05-15T08:43:35.023Z,100684.72
2023-05-15T08:46:03.032Z,100683.83
2023-05-15T08:48:33.655Z,100676.61
2023-05-15T08:51:03.483Z,100669.42
2023-05-15T08:53:33.028Z,100661.61
2023-05-15T08:56:02.380Z,100652.27
2023-05-15T08:58:31.870Z,100649.55
2023-05-15T09:01:00.888Z,100636.77
2023-05-15T09:03:29.471Z,100640.17
2023-05-15T09:05:58.420Z,100641.93
2023-05-15T09:08:27.616Z,100634.73
2023-05-15T09:10:56.645Z,100625.66
2023-05-15T09:13:25.567Z,100622.33
2023-05-15T09:15:56.868Z,100630.37
2023-05-15T09:18:25.176Z,100635.47
2023-05-15T09:20:56.226Z,100637.85
2023-05-15T09:23:25.998Z,100641.14
2023-05-15T09:25:56.144Z,100642.98
2023-05-15T09:28:28.351Z,100635.98
2023-05-15T09:31:01.168Z,100636.08
2023-05-15T09:33:30.203Z,100641.35
2023-05-15T09:36:02.140Z,100639.34
2023-05-15T09:38:34.567Z,100643.15
2023-05-15T09:41:04.103Z,100640.65
2023-05-15T09:43:35.143Z,100643.88
2023-05-15T09:46:05.763Z,100636.45
2023-05-15T09:48:34.317Z,100638.73
2023-05-15T09:51:14.115Z,100635.40
2023-05-15T09:53:50.343Z,100631.55
2023-05-15T09:56:19.979Z,100629.73
2023-05-15T09:58:54.549Z,100630.98
2023-05-15T10:01:23.532Z,100627.81
2023-05-15T10:03:59.214Z,100627.86
2023-05-15T10:06:31.655Z,100631.17
2023-05-15T10:09:02.999Z,100626.88
2023-05-15T10:11:34.622Z,100621.51
2023-05-15T10:14:04.568Z,100622.49
2023-05-15T10:16:37.984Z,100622.89
2023-05-15T10:19:08.047Z,100620.20
2023-05-15T10:21:37.458Z,100615.31
2023-05-15T10:24:06.590Z,100608.23
2023-05-15T10:26:43.075Z,100602.42
2023-05-15T10:31:59.317Z,100595.66
2023-05-15T10:34:37.863Z,100584.39
2023-05-15T10:37:20.819Z,100583.11
2023-05-15T10:40:03.246Z,100580.95
2023-05-15T10:42:35.360Z,100587.11
2023-05-15T10:45:04.644Z,100580.52
2023-05-15T10:47:47.459Z,100575.35
2023-05-15T10:50:26.103Z,100562.16
2023-05-15T10:52:56.231Z,100559.31
2023-05-15T10:55:29.097Z,100568.11
2023-05-15T10:57:59.625Z,100570.82
2023-05-15T11:00:47.737Z,100569.30
2023-05-15T11:03:49.214Z,100572.21
2023-05-15T11:06:37.813Z,100578.39
2023-05-15T11:09:35.647Z,100580.17
2023-05-15T11:12:06.159Z,100583.91
2023-05-15T11:14:37.305Z,100580.69
2023-05-15T11:17:06.241Z,100574.17
2023-05-15T11:19:41.605Z,100581.02
2023-05-15T11:22:20.738Z,100584.77
2023-05-15T11:24:54.695Z,100580.37
2023-05-15T11:27:24.078Z,100580.23
2023-05-15T11:30:20.171Z,100582.41
2023-05-15T11:32:59.983Z,100578.94
2023-05-15T11:35:30.342Z,100580.88
2023-05-15T11:38:10.979Z,100582.56
2023-05-15T11:40:47.474Z,100583.09
2023-05-15T11:43:24.847Z,100580.80
2023-05-15T11:45:57.404Z,100581.52
2023-05-15T11:48:32.812Z,100580.40
2023-05-15T11:51:03.875Z,100576.14
2023-05-15T11:53:33.874Z,100578.36
2023-05-15T11:56:01.908Z,100575.45
2023-05-15T11:58:32.370Z,100573.36
2023-05-15T12:01:01.512Z,100566.82
2023-05-15T12:03:34.204Z,100566.54
2023-05-15T12:06:03.404Z,100565.75
2023-05-15T12:08:37.011Z,100559.34
2023-05-15T12:11:05.815Z,100554.70
2023-05-15T12:13:35.364Z,100548.39
2023-05-15T12:16:04.557Z,100546.30
2023-05-15T12:18:33.291Z,100547.10
2023-05-15T12:21:04.239Z,100547.00
2023-05-15T12:23:33.590Z,100544.94
2023-05-15T12:26:03.320Z,100549.03
2023-05-15T12:28:33.742Z,100554.17
2023-05-15T12:31:04.082Z,100555.20
2023-05-15T12:33:32.959Z,100557.06
2023-05-15T12:36:07.460Z,100552.96
2023-05-15T12:38:43.742Z,100551.54
2023-05-15T12:41:12.307Z,100547.73
2023-05-15T12:43:41.161Z,100545.28
2023-05-15T12:46:10.196Z,100545.08
2023-05-15T12:48:44.392Z,100548.96
2023-05-15T12:51:16.753Z,100545.73
2023-05-15T12:53:47.534Z,100549.45
2023-05-15T12:56:20.681Z,100547.28
2023-05-15T12:58:50.069Z,100539.84
2023-05-15T13:01:19.196Z,100536.36
2023-05-15T13:03:50.626Z,100530.58
2023-05-15T13:06:41.946Z,100527.56
2023-05-15T13:09:17.895Z,100524.98
2023-05-15T13:11:47.772Z,100527.98
2023-05-15T13:14:18.733Z,100520.69
2023-05-15T13:16:47.319Z,100517.35
2023-05-15T13:19:17.928Z,100515.59
2023-05-15T13:21:46.846Z,100513.61
2023-05-15T13:24:15.083Z,100513.38
2023-05-15T13:26:43.491Z,100515.13
2023-05-15T13:29:12.141Z,100514.09
2023-05-15T13:31:43.514Z,100516.50
2023-05-15T13:34:13.383Z,100518.19
2023-05-15T13:36:42.000Z,100517.12
2023-05-15T13:39:13.009Z,100511.23
2023-05-15T13:42:04.426Z,100502.92
2023-05-15T13:44:35.528Z,100499.57
2023-05-15T13:47:04.048Z,100494.75
2023-05-15T13:49:35.568Z,100499.23
2023-05-15T13:52:04.361Z,100504.10
2023-05-15T13:54:33.001Z,100507.67
2023-05-15T13:57:01.625Z,100503.02
2023-05-15T13:59:43.191Z,100497.12
2023-05-15T14:02:16.106Z,100492.75
2023-05-15T14:04:50.420Z,100484.32
2023-05-15T14:07:19.133Z,100476.36
2023-05-15T14:09:48.269Z,100476.34
2023-05-15T14:12:16.418Z,100474.73
2023-05-15T14:14:46.984Z,100473.29
2023-05-15T14:17:18.132Z,100467.40
2023-05-15T14:19:46.630Z,100463.06
2023-05-15T14:22:15.624Z,100464.09
2023-05-15T14:24:44.068Z,100466.77
2023-05-15T14:27:12.597Z,100468.66
2023-05-15T14:29:41.695Z,100473.53
2023-05-15T14:32:10.741Z,100482.80
2023-05-15T14:34:39.333Z,100495.14
2023-05-15T14:37:08.960Z,100500.70
2023-05-15T14:39:38.994Z,100503.73
2023-05-15T14:42:31.842Z,100502.08
2023-05-15T14:45:10.969Z,100500.02
2023-05-15T14:47:44.869Z,100502.63
2023-05-15T14:50:13.045Z,100503.25
2023-05-15T14:52:41.210Z,100506.39
2023-05-15T14:55:10.416Z,100498.96
2023-05-15T14:57:40.071Z,100499.66
2023-05-15T15:00:47.552Z,100498.89
2023-05-15T15:03:39.702Z,100495.95
2023-05-15T15:10:19.512Z,100485.70
2023-05-15T15:13:23.154Z,100480.75
2023-05-15T15:15:51.453Z,100472.27
2023-05-15T15:18:21.665Z,100473.60
2023-05-15T15:20:50.070Z,100473.27
2023-05-15T15:23:18.289Z,100471.98
2023-05-15T15:25:49.962Z,100473.70
2023-05-15T15:28:41.659Z,100472.77
2023-05-15T15:31:11.934Z,100472.54
2023-05-15T15:33:49.749Z,100466.00
2023-05-15T15:36:18.478Z,100464.25
2023-05-15T15:38:49.228Z,100460.42
2023-05-15T15:41:22.185Z,100457.99
2023-05-15T15:44:34.830Z,100463.30
2023-05-15T15:47:09.016Z,100470.05
2023-05-15T15:49:38.253Z,100472.92
2023-05-15T15:52:31.736Z,100481.73
2023-05-15T15:55:07.864Z,100480.70
2023-05-15T15:57:36.792Z,100477.46
2023-05-15T16:00:09.472Z,100470.80
2023-05-15T16:02:38.328Z,100470.61
2023-05-15T16:05:08.041Z,100479.89
2023-05-15T16:07:36.389Z,100487.10
2023-05-15T16:10:27.528Z,100492.34
2023-05-15T16:12:53.845Z,100497.15
2023-05-15T16:15:24.070Z,100498.49
2023-05-15T16:17:55.176Z,100504.17
2023-05-15T16:20:26.295Z,100503.56
2023-05-15T16:22:56.874Z,100503.11
2023-05-15T16:25:25.139Z,100503.10
2023-05-15T16:27:53.824Z,100501.58
2023-05-15T16:30:23.372Z,100498.91
2023-05-15T16:32:53.099Z,100502.11
2023-05-15T16:35:22.158Z,100497.64
2023-05-15T16:37:50.659Z,100489.71
2023-05-15T16:40:18.990Z,100492.39
2023-05-15T16:42:47.022Z,100486.06
2023-05-15T16:45:15.907Z,100480.08
2023-05-15T16:47:44.028Z,100473.60
2023-05-15T16:50:13.003Z,100475.45
2023-05-15T16:52:48.080Z,100475.05
2023-05-15T16:55:18.368Z,100462.98
2023-05-15T16:57:50.693Z,100458.18
2023-05-15T17:00:20.510Z,100473.33
2023-05-15T17:02:49.193Z,100495.73
2023-05-15T17:05:17.526Z,100505.05
2023-05-15T17:08:06.038Z,100504.61
2023-05-15T17:11:18.684Z,100504.23
2023-05-15T17:14:07.539Z,100502.09
2023-05-15T17:20:32.698Z,100489.79
2023-05-15T17:23:06.084Z,100497.20
2023-05-15T17:25:47.882Z,100523.13
2023-05-15T17:28:17.057Z,100537.20
2023-05-15T17:30:45.786Z,100534.77
2023-05-15T17:33:15.869Z,100517.36
2023-05-15T17:35:47.203Z,100516.58
2023-05-15T17:38:19.984Z,100517.90
2023-05-15T17:40:57.422Z,100502.97
2023-05-15T17:43:29.917Z,100469.52
2023-05-15T17:46:01.408Z,100434.13
2023-05-15T17:48:59.934Z,100405.50
2023-05-15T17:51:31.874Z,100429.39
2023-05-15T17:54:11.231Z,100461.14
2023-05-15T17:57:04.978Z,100482.98
2023-05-15T17:59:46.505Z,100508.64
2023-05-15T18:02:34.838Z,100546.83
2023-05-15T18:05:08.082Z,100569.98
2023-05-15T18:07:39.046Z,100567.84
2023-05-15T18:10:15.448Z,100569.08
2023-05-15T18:12:47.559Z,100572.11
2023-05-15T18:15:49.160Z,100585.02
2023-05-15T18:18:38.368Z,100594.17
2023-05-15T18:21:41.315Z,100591.70
2023-05-15T18:24:43.990Z,100577.09
2023-05-15T18:27:21.028Z,100571.57
2023-05-15T18:30:00.477Z,100572.38
2023-05-15T18:33:10.910Z,100570.27
2023-05-15T18:36:07.478Z,100575.16
2023-05-15T18:38:37.785Z,100588.60
2023-05-15T18:41:12.826Z,100587.23
2023-05-15T18:44:01.734Z,100588.60
2023-05-15T18:46:35.480Z,100580.70
2023-05-15T18:49:05.410Z,100584.83
2023-05-15T18:51:35.454Z,100581.16
2023-05-15T18:54:07.116Z,100571.17
2023-05-15T18:56:43.175Z,100562.64
2023-05-15T18:59:15.646Z,100557.13
2023-05-15T19:01:48.490Z,100558.89
2023-05-15T19:04:39.876Z,100561.77
2023-05-15T19:07:11.869Z,100560.40
2023-05-15T19:09:39.977Z,100559.04
2023-05-15T19:12:08.313Z,100554.98
2023-05-15T19:14:36.588Z,100552.04
2023-05-15T19:17:08.813Z,100550.83
2023-05-15T19:19:36.747Z,100558.27
2023-05-15T19:22:07.057Z,100562.86
2023-05-15T19:24:36.768Z,100569.23
2023-05-15T19:27:13.868Z,100571.63
2023-05-15T19:29:42.981Z,100573.04
2023-05-15T19:32:14.317Z,100572.80
2023-05-15T19:34:42.405Z,100578.61
2023-05-15T19:37:14.350Z,100587.96
2023-05-15T19:39:43.692Z,100588.39
2023-05-15T19:42:12.248Z,100587.89
2023-05-15T19:45:06.603Z,100587.67
2023-05-15T19:47:43.967Z,100596.64
2023-05-15T19:50:20.862Z,100598.17
2023-05-15T19:52:49.333Z,100593.33
2023-05-15T19:55:43.071Z,100593.67
2023-05-15T19:58:11.255Z,100591.00
2023-05-15T20:04:18.543Z,100576.45
2023-05-15T20:06:46.869Z,100578.17
2023-05-15T20:09:19.482Z,100579.63
2023-05-15T20:11:51.207Z,100580.11
2023-05-15T20:14:42.731Z,100578.02
2023-05-15T20:17:20.505Z,100580.73
2023-05-15T20:19:58.992Z,100581.00
2023-05-15T20:22:32.187Z,100587.61
2023-05-15T20:25:00.333Z,100585.27
2023-05-15T20:27:32.811Z,100590.69
2023-05-15T20:30:01.306Z,100598.06
2023-05-15T20:32:32.782Z,100599.14
2023-05-15T20:35:01.812Z,100601.83
2023-05-15T20:37:40.382Z,100608.12
2023-05-15T20:40:12.483Z,100609.61
2023-05-15T20:42:40.591Z,100614.49
2023-05-15T20:45:26.025Z,100615.65
2023-05-15T20:47:54.754Z,100618.21
2023-05-15T20:50:24.846Z,100621.19
2023-05-15T20:52:59.902Z,100626.38
2023-05-15T20:55:28.150Z,100625.12
2023-05-15T20:57:56.307Z,100624.04
2023-05-15T21:00:24.555Z,100626.71
2023-05-15T21:02:53.226Z,100628.39
2023-05-15T21:05:28.035Z,100626.79
2023-05-15T21:07:57.545Z,100629.48
2023-05-15T21:10:46.489Z,100629.16
2023-05-15T21:13:19.346Z,100631.02
2023-05-15T21:15:56.551Z,100631.25
2023-05-15T21:18:44.954Z,100637.63
2023-05-15T21:21:13.949Z,100638.18
2023-05-15T21:23:50.565Z,100637.10
2023-05-15T21:26:22.324Z,100633.21
2023-05-15T21:28:54.526Z,100630.86
2023-05-15T21:31:25.395Z,100624.30
2023-05-15T21:33:53.703Z,100622.58
2023-05-15T21:36:22.703Z,100616.11
2023-05-15T21:38:53.472Z,100612.19
2023-05-15T21:41:23.028Z,100614.05
2023-05-15T21:43:52.902Z,100616.49
2023-05-15T21:46:22.113Z,100613.72
2023-05-15T21:49:03.482Z,100613.52
2023-05-15T21:51:38.631Z,100607.42
2023-05-15T21:54:08.154Z,100605.95
2023-05-15T21:56:51.293Z,100603.67
2023-05-15T21:59:23.811Z,100602.51
2023-05-15T22:01:55.446Z,100595.54
2023-05-15T22:04:24.446Z,100586.59
2023-05-15T22:06:52.498Z,100580.16
2023-05-15T22:09:20.931Z,100568.59
2023-05-15T22:11:52.472Z,100562.06
2023-05-15T22:14:29.962Z,100559.64
2023-05-15T22:16:58.013Z,100553.88
2023-05-15T22:19:32.953Z,100548.55
2023-05-15T22:22:02.983Z,100540.59
2023-05-15T22:24:47.272Z,100533.96
2023-05-15T22:27:16.186Z,100530.05
2023-05-15T22:29:46.556Z,100525.39
2023-05-15T22:32:14.853Z,100512.81
2023-05-15T22:34:43.555Z,100506.82
2023-05-15T22:37:12.518Z,100504.83
2023-05-15T22:39:41.125Z,100502.55
2023-05-15T22:42:10.947Z,100500.73
2023-05-15T22:44:39.934Z,100505.66
2023-05-15T22:47:11.595Z,100510.92
2023-05-15T22:49:41.216Z,100513.76
2023-05-15T22:52:13.625Z,100512.92
2023-05-15T22:54:42.364Z,100513.02
2023-05-15T22:57:10.744Z,100510.23
2023-05-15T22:59:39.667Z,100507.35
2023-05-15T23:02:17.275Z,100508.98
2023-05-15T23:04:47.505Z,100513.80
2023-05-15T23:08:00.902Z,100513.33
2023-05-15T23:11:16.227Z,100511.62
2023-05-15T23:14:15.254Z,100508.55
2023-05-15T23:17:04.480Z,100507.72
2023-05-15T23:26:11.130Z,100508.14
2023-05-15T23:28:47.439Z,100506.41
2023-05-15T23:31:20.915Z,100497.79
2023-05-15T23:33:51.049Z,100499.06
2023-05-15T23:39:23.043Z,100494.39
2023-05-15T23:41:52.005Z,100496.21
2023-05-15T23:44:20.222Z,100485.70
2023-05-15T23:46:48.856Z,100485.70
2023-05-15T23:49:17.432Z,100478.12
2023-05-15T23:51:45.784Z,100477.16
2023-05-15T23:54:14.420Z,100472.63
2023-05-15T23:56:43.217Z,100473.36
2023-05-15T23:59:11.854Z,100473.06
